Time;durP1;ratioP1;P1;durP2;ratioP2;P2;SDS_P1;SDS_P2;PMS_P1;PMS_P2;Temp;Humidity;BMP_temperature;BMP_pressure;BME280_temperature;BME280_humidity;BME280_pressure;Samples;Min_cycle;Max_cycle;Signal;HPM_P1;HPM_P2
2021/12/16 00:01:47;;;;;;;28.20;17.77;;;4.00;99.90;;;;;;5130805;27;20084;-69
2021/12/16 00:34:02;;;;;;;33.60;20.58;;;3.90;99.90;;;;;;5131839;27;20455;-69
2021/12/16 00:36:37;;;;;;;32.80;20.17;;;3.90;99.90;;;;;;5132693;27;20023;-69
2021/12/16 00:39:10;;;;;;;31.55;19.65;;;3.80;99.90;;;;;;5132048;27;20031;-69
2021/12/16 00:41:37;;;;;;;33.50;19.98;;;3.80;99.90;;;;;;5132612;27;20027;-68
2021/12/16 00:44:14;;;;;;;30.13;19.38;;;3.80;99.90;;;;;;5132163;27;20023;-69
2021/12/16 00:47:00;;;;;;;28.88;18.65;;;3.80;99.90;;;;;;5132591;27;20051;-68
2021/12/16 00:54:46;;;;;;;26.67;17.88;;;3.80;99.90;;;;;;5132752;27;20503;-68
2021/12/16 00:57:15;;;;;;;25.98;17.58;;;3.80;99.90;;;;;;5131594;27;20612;-68
2021/12/16 00:59:44;;;;;;;32.25;20.08;;;3.80;99.90;;;;;;5132719;27;20476;-68
2021/12/16 01:02:34;;;;;;;26.85;16.70;;;3.80;99.90;;;;;;5111630;28;20028;-68
2021/12/16 01:39:12;;;;;;;27.95;18.15;;;3.80;99.90;;;;;;5131968;28;20376;-68
2021/12/16 01:49:09;;;;;;;27.52;19.10;;;4.00;99.90;;;;;;5132309;28;20114;-68
2021/12/16 01:51:37;;;;;;;27.55;18.73;;;4.00;99.90;;;;;;5131162;28;20035;-68
2021/12/16 01:57:03;;;;;;;29.25;18.77;;;4.00;99.90;;;;;;5131903;27;20447;-69
2021/12/16 01:59:35;;;;;;;28.38;18.73;;;4.00;99.90;;;;;;5132268;28;20031;-69
2021/12/16 02:02:44;;;;;;;30.00;19.80;;;4.00;99.90;;;;;;5130449;28;20080;-69
2021/12/16 02:10:26;;;;;;;32.80;21.92;;;3.90;99.90;;;;;;5131495;28;20038;-69
2021/12/16 02:31:46;;;;;;;30.33;20.63;;;4.00;99.90;;;;;;5135328;27;20031;-69
2021/12/16 02:37:10;;;;;;;30.30;19.30;;;4.00;99.90;;;;;;5110008;27;20389;-69
2021/12/16 02:39:35;;;;;;;26.67;17.98;;;3.90;99.90;;;;;;5135173;27;20046;-69
2021/12/16 02:42:12;;;;;;;25.80;17.33;;;3.90;99.90;;;;;;5134258;27;20035;-69
2021/12/16 02:48:27;;;;;;;27.63;18.10;;;3.90;99.90;;;;;;5134950;27;20030;-69
2021/12/16 02:50:07;;;;;;;26.58;18.02;;;3.90;99.90;;;;;;5133941;27;20123;-69
2021/12/16 02:52:33;;;;;;;26.33;18.15;;;4.00;99.90;;;;;;5134520;27;20069;-69
2021/12/16 02:54:59;;;;;;;23.80;16.70;;;4.00;99.90;;;;;;5134560;27;20023;-69
2021/12/16 02:57:25;;;;;;;27.77;18.20;;;4.00;99.90;;;;;;5134890;27;20036;-69
2021/12/16 02:59:52;;;;;;;25.42;17.63;;;3.90;99.90;;;;;;5134910;27;20138;-69
2021/12/16 03:02:20;;;;;;;26.60;17.98;;;3.90;99.90;;;;;;5133651;27;20027;-69
2021/12/16 03:04:49;;;;;;;25.13;16.75;;;3.90;99.90;;;;;;5134794;27;20133;-69
2021/12/16 03:07:16;;;;;;;27.08;17.77;;;4.00;99.90;;;;;;5133437;27;20031;-69
2021/12/16 03:16:13;;;;;;;28.65;19.00;;;4.00;99.90;;;;;;5133816;27;20045;-69
2021/12/16 03:21:02;;;;;;;24.52;16.60;;;4.00;99.90;;;;;;5134300;27;20080;-69
2021/12/16 03:26:27;;;;;;;24.85;17.30;;;4.00;99.90;;;;;;5133743;27;20042;-69
2021/12/16 03:29:05;;;;;;;24.65;16.17;;;4.00;99.90;;;;;;5133823;27;20061;-69
2021/12/16 03:31:47;;;;;;;24.67;16.10;;;4.00;99.90;;;;;;5133163;27;20022;-69
2021/12/16 03:34:36;;;;;;;25.88;16.33;;;4.00;99.90;;;;;;5133457;27;20024;-69
2021/12/16 03:37:15;;;;;;;26.63;16.70;;;4.00;99.90;;;;;;5133552;27;20030;-69
2021/12/16 03:40:03;;;;;;;26.77;17.63;;;4.00;99.90;;;;;;5134276;27;20027;-69
2021/12/16 03:42:34;;;;;;;26.88;17.08;;;4.00;99.90;;;;;;5132148;27;20039;-69
2021/12/16 03:48:27;;;;;;;23.50;14.95;;;4.00;99.90;;;;;;5132684;27;20510;-69
2021/12/16 03:50:54;;;;;;;28.13;16.67;;;4.00;99.90;;;;;;5117080;27;20129;-69
2021/12/16 03:53:20;;;;;;;27.88;17.23;;;4.00;99.90;;;;;;5133288;27;20371;-69
2021/12/16 03:55:47;;;;;;;26.20;17.50;;;4.00;99.90;;;;;;5133798;27;20031;-69
2021/12/16 03:58:14;;;;;;;26.08;17.10;;;4.00;99.90;;;;;;5132381;27;20034;-69
2021/12/16 04:00:46;;;;;;;27.60;17.17;;;4.00;99.90;;;;;;5133265;27;20384;-69
2021/12/16 04:03:12;;;;;;;25.70;16.85;;;4.00;99.90;;;;;;5131881;27;20106;-69
2021/12/16 04:05:39;;;;;;;28.38;18.15;;;4.00;99.90;;;;;;5133087;27;20061;-69
2021/12/16 04:08:05;;;;;;;26.13;16.77;;;4.00;99.90;;;;;;5132718;27;20027;-69
2021/12/16 04:10:47;;;;;;;29.08;18.08;;;4.00;99.90;;;;;;5133293;27;20486;-69
2021/12/16 04:13:16;;;;;;;28.92;18.17;;;4.00;99.90;;;;;;5131879;27;20125;-69
2021/12/16 04:15:42;;;;;;;31.13;19.15;;;4.10;99.90;;;;;;5133420;27;20106;-69
2021/12/16 04:18:08;;;;;;;30.23;18.25;;;4.00;99.90;;;;;;5132321;27;20110;-69
2021/12/16 04:20:34;;;;;;;30.30;19.23;;;4.10;99.90;;;;;;5132858;27;20033;-69
2021/12/16 04:23:00;;;;;;;27.65;18.23;;;4.10;99.90;;;;;;5132845;27;20062;-69
2021/12/16 04:25:31;;;;;;;32.33;19.98;;;4.10;99.90;;;;;;5133349;27;20031;-69
2021/12/16 04:27:59;;;;;;;;;;;4.10;99.90;;;;;;5133569;27;20015;-69
2021/12/16 04:30:27;;;;;;;32.55;19.23;;;4.10;99.90;;;;;;5132286;27;19968;-69
2021/12/16 04:32:53;;;;;;;30.50;20.50;;;4.10;99.90;;;;;;5131910;27;20111;-69
2021/12/16 04:35:20;;;;;;;31.75;19.60;;;4.10;99.90;;;;;;5132425;27;20031;-69
2021/12/16 04:37:46;;;;;;;31.15;18.58;;;4.20;99.90;;;;;;5133119;27;20080;-69
2021/12/16 04:40:13;;;;;;;27.45;18.30;;;4.10;99.90;;;;;;5132425;27;20027;-69
2021/12/16 04:42:41;;;;;;;33.15;20.50;;;4.10;99.90;;;;;;5131486;27;20102;-70
2021/12/16 04:45:10;;;;;;;34.08;20.50;;;4.10;99.90;;;;;;5131859;27;20019;-69
2021/12/16 04:47:38;;;;;;;33.97;20.70;;;4.00;99.90;;;;;;5132839;27;20116;-69
2021/12/16 04:50:05;;;;;;;34.28;21.25;;;4.00;99.90;;;;;;5132448;27;20088;-69
2021/12/16 04:52:32;;;;;;;34.20;21.13;;;4.00;99.90;;;;;;5132775;27;20050;-69
2021/12/16 04:54:57;;;;;;;35.47;21.38;;;4.10;99.90;;;;;;5132983;27;20044;-69
2021/12/16 04:57:23;;;;;;;37.08;22.02;;;4.10;99.90;;;;;;5132177;27;20023;-69
2021/12/16 04:59:49;;;;;;;38.65;22.20;;;4.00;99.90;;;;;;5124932;27;20372;-69
2021/12/16 05:02:22;;;;;;;38.53;22.17;;;4.00;99.90;;;;;;5128266;27;20038;-69
2021/12/16 05:04:48;;;;;;;33.03;20.02;;;4.00;99.90;;;;;;5132947;27;20023;-69
2021/12/16 05:07:14;;;;;;;36.22;21.33;;;4.00;99.90;;;;;;5132688;27;20144;-69
2021/12/16 05:12:17;;;;;;;36.92;21.77;;;4.00;99.90;;;;;;5132701;27;20463;-69
2021/12/16 05:14:45;;;;;;;35.83;20.33;;;4.10;99.90;;;;;;5133346;27;20027;-69
2021/12/16 05:17:24;;;;;;;36.95;21.83;;;4.00;99.90;;;;;;5132909;27;20083;-69
2021/12/16 05:19:52;;;;;;;33.70;20.10;;;4.00;99.90;;;;;;5133380;27;20440;-70
2021/12/16 05:25:08;;;;;;;36.33;21.63;;;4.00;99.90;;;;;;5132512;28;20025;-69
2021/12/16 05:27:34;;;;;;;;;;;4.00;99.90;;;;;;5133709;28;20019;-69
2021/12/16 05:29:59;;;;;;;34.28;18.80;;;4.10;99.90;;;;;;5132955;28;19903;-70
2021/12/16 05:32:25;;;;;;;34.70;19.23;;;4.10;99.90;;;;;;5132346;28;20031;-69
2021/12/16 05:34:51;;;;;;;34.33;19.58;;;4.10;99.90;;;;;;5133260;28;20023;-69
2021/12/16 05:37:17;;;;;;;37.67;20.73;;;4.10;99.90;;;;;;5132380;28;20023;-69
2021/12/16 05:39:42;;;;;;;34.63;20.17;;;4.10;99.90;;;;;;5130606;28;20406;-69
2021/12/16 05:42:08;;;;;;;32.72;19.83;;;4.10;99.90;;;;;;5131090;28;20027;-69
2021/12/16 05:44:34;;;;;;;31.05;17.77;;;4.10;99.90;;;;;;5132752;28;20027;-69
2021/12/16 05:47:00;;;;;;;29.83;17.90;;;4.10;99.90;;;;;;5132665;28;20035;-69
2021/12/16 05:49:26;;;;;;;33.33;19.42;;;4.10;99.90;;;;;;5131862;28;20087;-69
2021/12/16 05:51:52;;;;;;;31.90;18.30;;;4.10;99.90;;;;;;5133158;28;20026;-69
2021/12/16 05:54:21;;;;;;;36.88;20.75;;;4.10;99.90;;;;;;5133382;27;20015;-69
2021/12/16 05:56:48;;;;;;;35.03;19.65;;;4.10;99.90;;;;;;5137046;27;20061;-69
2021/12/16 05:59:17;;;;;;;35.20;19.27;;;4.10;99.90;;;;;;5135981;27;20047;-69
2021/12/16 06:01:44;;;;;;;38.00;20.97;;;4.10;99.90;;;;;;5137041;27;20025;-69
2021/12/16 06:04:10;;;;;;;34.17;19.55;;;4.10;99.90;;;;;;5136227;27;20249;-69
2021/12/16 06:06:36;;;;;;;34.20;20.00;;;4.10;99.90;;;;;;5136564;27;20019;-69
2021/12/16 06:09:04;;;;;;;36.20;19.98;;;4.10;99.90;;;;;;5136350;27;20043;-69
2021/12/16 06:11:31;;;;;;;35.25;19.33;;;4.20;99.90;;;;;;5136009;27;20105;-69
2021/12/16 06:27:33;;;;;;;34.05;18.52;;;4.30;99.90;;;;;;5135086;27;20106;-69
2021/12/16 06:29:59;;;;;;;36.45;19.27;;;4.30;99.90;;;;;;5135509;27;20027;-69
2021/12/16 06:32:26;;;;;;;34.88;19.20;;;4.20;99.90;;;;;;5135103;27;20093;-69
2021/12/16 06:34:53;;;;;;;34.25;19.42;;;4.30;99.90;;;;;;5135836;27;20035;-69
2021/12/16 06:37:20;;;;;;;36.05;19.10;;;4.20;99.90;;;;;;5135018;27;20125;-69
2021/12/16 06:39:45;;;;;;;36.00;19.70;;;4.20;99.90;;;;;;5135635;27;20106;-69
2021/12/16 06:42:12;;;;;;;34.05;19.60;;;4.20;99.90;;;;;;5134649;27;20123;-69
2021/12/16 06:44:51;;;;;;;37.83;21.40;;;4.30;99.90;;;;;;5135480;27;20503;-69
2021/12/16 06:47:22;;;;;;;36.35;20.25;;;4.30;99.90;;;;;;5135200;27;20038;-69
2021/12/16 06:49:51;;;;;;;33.70;19.48;;;4.30;99.90;;;;;;5135897;27;20492;-69
2021/12/16 06:52:20;;;;;;;39.55;20.30;;;4.30;99.90;;;;;;5134921;27;20065;-71
2021/12/16 06:57:26;;;;;;;36.47;20.05;;;4.20;99.90;;;;;;5134889;27;20031;-72
2021/12/16 07:00:05;;;;;;;34.35;18.75;;;4.20;99.90;;;;;;5135041;27;20035;-70
2021/12/16 07:02:44;;;;;;;36.60;20.63;;;4.20;99.90;;;;;;5134600;27;20028;-69
2021/12/16 07:05:12;;;;;;;40.17;19.95;;;4.20;99.90;;;;;;5134184;27;20027;-73
2021/12/16 07:07:38;;;;;;;36.00;19.85;;;4.20;99.90;;;;;;5135044;27;20039;-69
2021/12/16 07:10:06;;;;;;;35.00;19.20;;;4.20;99.90;;;;;;5135278;27;20062;-68
2021/12/16 07:12:36;;;;;;;40.10;21.77;;;4.30;99.90;;;;;;5116311;27;20397;-72
2021/12/16 07:15:10;;;;;;;38.65;20.25;;;4.30;99.90;;;;;;5135347;27;20023;-67
2021/12/16 07:17:37;;;;;;;37.03;19.80;;;4.30;99.90;;;;;;5134723;27;20073;-67
2021/12/16 07:20:05;;;;;;;35.25;19.27;;;4.30;99.90;;;;;;5130838;27;20426;-68
2021/12/16 07:22:31;;;;;;;36.47;19.17;;;4.30;99.90;;;;;;5133312;27;20520;-68
2021/12/16 07:24:57;;;;;;;33.75;18.50;;;4.30;99.90;;;;;;5135992;27;20098;-68
2021/12/16 07:27:23;;;;;;;32.33;18.45;;;4.30;99.90;;;;;;5133799;27;20091;-68
2021/12/16 07:29:48;;;;;;;34.15;17.98;;;4.30;99.90;;;;;;5135227;27;20031;-68
2021/12/16 07:32:14;;;;;;;37.72;20.05;;;4.30;99.90;;;;;;5133991;27;20023;-70
2021/12/16 07:34:40;;;;;;;36.70;19.63;;;4.40;99.90;;;;;;5134840;27;20028;-70
2021/12/16 07:37:08;;;;;;;36.15;18.83;;;4.30;99.90;;;;;;5134549;27;20102;-68
2021/12/16 07:39:42;;;;;;;35.97;19.00;;;4.40;99.90;;;;;;5133574;27;20035;-68
2021/12/16 07:42:12;;;;;;;36.70;19.20;;;4.40;99.90;;;;;;5134511;27;20019;-67
2021/12/16 07:44:38;;;;;;;37.40;18.67;;;4.40;99.90;;;;;;5114177;28;20072;-70
2021/12/16 07:47:08;;;;;;;35.95;19.38;;;4.40;99.90;;;;;;5121167;27;20122;-71
2021/12/16 07:49:39;;;;;;;32.80;18.23;;;4.40;99.90;;;;;;5133505;27;20206;-77
2021/12/16 07:52:09;;;;;;;34.65;17.65;;;4.50;99.90;;;;;;5134138;27;20385;-74
2021/12/16 07:54:34;;;;;;;36.80;17.90;;;4.50;99.90;;;;;;5134129;27;20372;-72
2021/12/16 07:57:01;;;;;;;34.67;18.30;;;4.50;99.90;;;;;;5134375;27;20031;-69
2021/12/16 07:59:28;;;;;;;34.28;18.88;;;4.60;99.90;;;;;;5133055;27;20080;-70
2021/12/16 08:01:55;;;;;;;32.50;18.30;;;4.60;99.90;;;;;;5133159;27;20352;-70
2021/12/16 08:04:27;;;;;;;31.42;17.70;;;4.60;99.90;;;;;;5132565;27;20023;-71
2021/12/16 08:06:54;;;;;;;28.92;15.90;;;4.60;99.90;;;;;;5135747;27;20053;-73
2021/12/16 08:09:22;;;;;;;31.02;17.42;;;4.60;99.90;;;;;;5131021;27;20479;-74
2021/12/16 08:11:50;;;;;;;32.05;17.33;;;4.60;99.90;;;;;;5133291;27;20027;-73
2021/12/16 08:14:17;;;;;;;33.72;18.52;;;4.60;99.90;;;;;;5132790;27;20088;-74
2021/12/16 08:16:43;;;;;;;31.58;17.10;;;4.60;99.90;;;;;;5132790;27;20031;-69
2021/12/16 08:19:09;;;;;;;32.78;16.38;;;4.60;99.90;;;;;;5133299;27;20065;-70
2021/12/16 08:21:36;;;;;;;30.40;16.40;;;4.70;99.90;;;;;;5129214;27;20023;-70
2021/12/16 08:24:06;;;;;;;29.50;16.60;;;4.70;99.90;;;;;;5129784;27;20026;-71
2021/12/16 08:26:33;;;;;;;29.92;16.23;;;4.80;99.90;;;;;;5133131;27;20027;-71
2021/12/16 08:28:59;;;;;;;30.17;17.35;;;4.80;99.90;;;;;;5132429;27;20083;-71
2021/12/16 08:31:25;;;;;;;30.17;17.48;;;5.00;99.90;;;;;;5131740;27;20023;-70
2021/12/16 08:33:51;;;;;;;34.17;17.30;;;5.00;99.90;;;;;;5132571;27;20016;-70
2021/12/16 08:36:17;;;;;;;28.85;17.17;;;5.00;99.90;;;;;;5131362;27;20069;-70
2021/12/16 08:38:45;;;;;;;29.17;16.35;;;5.00;99.90;;;;;;5131319;27;20064;-70
2021/12/16 08:41:20;;;;;;;27.10;16.05;;;5.00;99.90;;;;;;5132158;27;20171;-69
2021/12/16 08:43:45;;;;;;;29.65;16.95;;;5.00;99.90;;;;;;5132308;27;20023;-68
2021/12/16 08:46:14;;;;;;;28.23;16.13;;;5.10;99.90;;;;;;5130892;27;20027;-67
2021/12/16 08:48:42;;;;;;;26.92;15.98;;;5.10;99.90;;;;;;5132183;27;20043;-68
2021/12/16 08:51:07;;;;;;;26.52;14.77;;;5.20;99.90;;;;;;5132417;27;20027;-69
2021/12/16 08:53:33;;;;;;;27.25;14.90;;;5.20;99.90;;;;;;5131314;27;20038;-71
2021/12/16 08:55:59;;;;;;;27.80;16.58;;;5.20;99.90;;;;;;5132691;27;20023;-69
2021/12/16 08:58:25;;;;;;;24.73;14.82;;;5.30;99.90;;;;;;5113634;27;20027;-71
2021/12/16 09:01:03;;;;;;;27.80;16.45;;;5.30;99.90;;;;;;5132662;27;20034;-70
2021/12/16 09:03:30;;;;;;;32.80;15.52;;;5.30;99.90;;;;;;5128786;27;20030;-70
2021/12/16 09:05:56;;;;;;;30.13;17.52;;;5.30;99.90;;;;;;5132387;27;20038;-70
2021/12/16 09:08:21;;;;;;;27.48;16.10;;;5.40;99.90;;;;;;5131932;27;20122;-67
2021/12/16 09:10:48;;;;;;;30.52;17.00;;;5.50;99.90;;;;;;5131838;27;20080;-70
2021/12/16 09:13:16;;;;;;;24.98;14.30;;;5.50;99.90;;;;;;5132010;27;20031;-69
2021/12/16 09:15:52;;;;;;;24.90;15.00;;;5.50;99.90;;;;;;5129172;27;20096;-70
2021/12/16 09:18:22;;;;;;;27.20;16.63;;;5.60;99.90;;;;;;5126474;27;20091;-70
2021/12/16 09:20:48;;;;;;;31.08;15.68;;;5.50;99.90;;;;;;5132244;27;20399;-69
2021/12/16 09:23:14;;;;;;;28.25;16.25;;;5.60;99.90;;;;;;5131618;28;20408;-69
2021/12/16 09:25:42;;;;;;;30.38;17.23;;;5.60;99.90;;;;;;5132410;28;20023;-69
2021/12/16 09:28:08;;;;;;;28.45;16.88;;;5.60;99.90;;;;;;5132329;27;20021;-70
2021/12/16 09:30:35;;;;;;;33.35;17.08;;;5.60;99.90;;;;;;5133564;27;20095;-69
2021/12/16 09:33:04;;;;;;;26.95;16.35;;;5.70;99.90;;;;;;5123051;27;20031;-69
2021/12/16 09:35:33;;;;;;;26.95;15.30;;;5.70;99.90;;;;;;5136153;27;20053;-70
2021/12/16 09:38:04;;;;;;;26.45;15.23;;;5.70;99.90;;;;;;5136617;27;20555;-69
2021/12/16 09:40:34;;;;;;;24.73;15.13;;;5.70;99.90;;;;;;5136279;27;20075;-70
2021/12/16 09:43:02;;;;;;;25.83;14.93;;;5.80;99.90;;;;;;5135715;27;20474;-67
2021/12/16 09:45:27;;;;;;;25.92;15.77;;;5.90;99.90;;;;;;5135026;27;20054;-69
2021/12/16 09:47:53;;;;;;;25.65;15.57;;;5.90;99.90;;;;;;5136304;27;20479;-70
2021/12/16 09:50:27;;;;;;;29.45;16.70;;;5.90;99.90;;;;;;5135760;27;20027;-70
2021/12/16 09:52:54;;;;;;;26.25;15.98;;;6.00;99.90;;;;;;5136326;27;20054;-70
2021/12/16 09:55:20;;;;;;;30.55;17.45;;;6.00;99.90;;;;;;5135658;27;20050;-70
2021/12/16 09:57:47;;;;;;;29.65;17.05;;;6.00;99.90;;;;;;5136292;27;20103;-69
2021/12/16 10:00:18;;;;;;;28.55;16.25;;;6.10;99.90;;;;;;5134678;27;20041;-69
2021/12/16 10:02:44;;;;;;;30.25;17.00;;;6.10;99.90;;;;;;5133506;27;20111;-70
2021/12/16 10:05:10;;;;;;;30.08;15.45;;;6.10;99.90;;;;;;5135427;27;20036;-68
2021/12/16 10:07:36;;;;;;;24.23;14.50;;;6.10;99.90;;;;;;5135620;27;20105;-69
2021/12/16 10:10:08;;;;;;;28.75;15.88;;;6.20;99.90;;;;;;5124382;27;20112;-69
2021/12/16 10:12:38;;;;;;;26.50;15.63;;;6.20;99.90;;;;;;5131316;27;20489;-69
2021/12/16 10:17:22;;;;;;;28.77;17.50;;;6.10;99.90;;;;;;5118814;27;20026;-69
2021/12/16 10:17:54;;;;;;;28.92;16.83;;;6.10;99.90;;;;;;5133432;27;20044;-68
2021/12/16 10:20:26;;;;;;;33.22;17.77;;;6.20;99.90;;;;;;5134190;27;20055;-69
2021/12/16 10:23:06;;;;;;;34.47;18.42;;;6.20;99.90;;;;;;5135223;27;20023;-69
2021/12/16 10:26:02;;;;;;;28.77;17.08;;;6.20;99.90;;;;;;5134400;27;20173;-69
2021/12/16 10:28:31;;;;;;;31.77;16.67;;;6.30;99.90;;;;;;5134053;27;20035;-69
2021/12/16 10:31:01;;;;;;;31.33;17.40;;;6.30;99.90;;;;;;5134712;27;20365;-69
2021/12/16 10:33:27;;;;;;;28.83;15.77;;;6.30;99.90;;;;;;5129943;27;20035;-69
2021/12/16 10:36:19;;;;;;;29.20;17.15;;;6.30;99.90;;;;;;5133575;27;20023;-69
2021/12/16 10:38:48;;;;;;;32.15;16.85;;;6.30;99.90;;;;;;5134534;27;20031;-69
2021/12/16 10:41:19;;;;;;;31.42;17.67;;;6.40;99.90;;;;;;5134788;27;20031;-69
2021/12/16 10:43:49;;;;;;;28.83;16.73;;;6.50;99.90;;;;;;5134786;27;20080;-68
2021/12/16 10:46:23;;;;;;;32.00;18.20;;;6.50;99.90;;;;;;5130180;27;20488;-68
2021/12/16 10:48:54;;;;;;;26.60;16.13;;;6.60;99.90;;;;;;5134217;27;20030;-69
2021/12/16 10:51:25;;;;;;;25.05;15.15;;;6.60;99.90;;;;;;5133895;27;20036;-69
2021/12/16 10:53:57;;;;;;;29.73;16.85;;;6.60;99.90;;;;;;5124942;27;20019;-69
2021/12/16 10:56:53;;;;;;;26.60;16.23;;;6.60;99.90;;;;;;5133029;27;20490;-69
2021/12/16 10:59:35;;;;;;;28.23;16.05;;;6.70;99.90;;;;;;5119874;27;20072;-69
2021/12/16 11:02:03;;;;;;;29.05;16.25;;;6.70;99.90;;;;;;5134363;27;20067;-68
2021/12/16 11:04:30;;;;;;;29.80;16.38;;;6.70;99.90;;;;;;5133886;27;20047;-69
2021/12/16 11:07:11;;;;;;;29.83;16.98;;;6.70;99.90;;;;;;5133819;27;20066;-69
2021/12/16 11:09:43;;;;;;;29.75;16.88;;;6.70;99.90;;;;;;5126430;27;20556;-69
2021/12/16 11:12:16;;;;;;;33.03;16.85;;;6.70;99.90;;;;;;5134513;27;20031;-69
2021/12/16 11:14:47;;;;;;;30.60;17.05;;;6.70;99.90;;;;;;5133733;27;20023;-69
2021/12/16 11:17:15;;;;;;;27.95;15.88;;;6.70;99.90;;;;;;5133835;27;20023;-68
2021/12/16 11:19:50;;;;;;;30.00;16.77;;;6.70;99.90;;;;;;5133911;27;20029;-69
2021/12/16 11:22:20;;;;;;;29.25;16.50;;;6.60;99.90;;;;;;5132701;27;20055;-70
2021/12/16 11:24:46;;;;;;;30.50;15.68;;;6.60;99.90;;;;;;5134025;27;20114;-69
2021/12/16 11:27:19;;;;;;;28.40;16.13;;;6.70;99.90;;;;;;5125590;27;20539;-70
2021/12/16 11:29:45;;;;;;;32.92;16.98;;;6.70;99.90;;;;;;5133797;27;20053;-70
2021/12/16 11:32:34;;;;;;;28.88;16.80;;;6.80;99.90;;;;;;5134269;27;20023;-70
2021/12/16 11:34:59;;;;;;;27.30;16.25;;;6.80;99.90;;;;;;5134062;27;20023;-70
2021/12/16 11:37:25;;;;;;;27.90;16.30;;;6.70;99.90;;;;;;5132484;27;20485;-70
2021/12/16 11:39:51;;;;;;;31.05;16.42;;;6.70;99.90;;;;;;5133661;27;20110;-69
2021/12/16 11:42:27;;;;;;;27.52;15.60;;;6.70;99.90;;;;;;5133679;27;20103;-70
2021/12/16 11:44:53;;;;;;;28.77;16.80;;;6.70;99.90;;;;;;5133661;27;20031;-67
2021/12/16 11:47:23;;;;;;;29.40;15.80;;;6.70;99.90;;;;;;5131849;27;20095;-70
2021/12/16 11:49:56;;;;;;;26.67;15.65;;;6.70;99.90;;;;;;5133716;27;20074;-68
2021/12/16 11:52:26;;;;;;;28.55;17.02;;;6.70;99.90;;;;;;5126841;27;20357;-68
2021/12/16 11:54:55;;;;;;;31.00;17.70;;;6.70;99.90;;;;;;5133188;27;20050;-68
2021/12/16 11:57:31;;;;;;;30.20;16.80;;;6.70;99.90;;;;;;5132965;27;20464;-68
2021/12/16 12:00:07;;;;;;;33.13;16.80;;;6.70;99.90;;;;;;5125322;27;20023;-68
2021/12/16 12:02:37;;;;;;;32.25;16.58;;;6.70;99.90;;;;;;5131632;27;20099;-67
2021/12/16 12:05:24;;;;;;;25.92;15.80;;;6.70;99.90;;;;;;5129571;27;20047;-67
2021/12/16 12:07:55;;;;;;;28.60;15.00;;;6.60;99.90;;;;;;5133030;27;20062;-68
2021/12/16 12:10:45;;;;;;;27.73;15.85;;;6.70;99.90;;;;;;5131512;27;20071;-68
2021/12/16 12:13:21;;;;;;;29.42;17.70;;;6.70;99.90;;;;;;5117776;27;20163;-68
2021/12/16 12:16:10;;;;;;;28.90;16.30;;;6.80;99.90;;;;;;5132615;27;20070;-68
2021/12/16 12:18:43;;;;;;;29.60;16.58;;;6.90;99.90;;;;;;5113906;27;20057;-68
2021/12/16 12:21:34;;;;;;;26.40;16.45;;;7.00;99.90;;;;;;5114509;27;20043;-68
2021/12/16 12:24:17;;;;;;;29.00;15.90;;;7.00;99.90;;;;;;5118637;27;20043;-68
2021/12/16 12:26:46;;;;;;;30.33;16.85;;;7.00;99.90;;;;;;5130519;27;20034;-68
2021/12/16 12:29:46;;;;;;;32.47;17.60;;;7.10;99.90;;;;;;5128736;27;20458;-68
2021/12/16 12:32:18;;;;;;;33.55;16.42;;;7.10;99.90;;;;;;5132523;27;20027;-68
2021/12/16 12:34:50;;;;;;;28.25;16.08;;;7.20;99.90;;;;;;5132675;27;20463;-68
2021/12/16 12:37:19;;;;;;;26.52;16.13;;;7.20;99.90;;;;;;5132374;27;20015;-68
2021/12/16 12:40:13;;;;;;;26.40;15.63;;;7.20;99.90;;;;;;5132509;27;20110;-68
2021/12/16 12:42:41;;;;;;;26.85;15.15;;;7.30;99.90;;;;;;5130752;27;20110;-67
2021/12/16 12:45:10;;;;;;;29.08;15.27;;;7.40;99.90;;;;;;5132885;27;20030;-68
2021/12/16 12:47:39;;;;;;;27.15;15.55;;;7.50;99.90;;;;;;5130490;27;20087;-67
2021/12/16 12:50:16;;;;;;;27.20;15.52;;;7.50;99.90;;;;;;5132256;27;20064;-70
2021/12/16 12:52:45;;;;;;;26.98;16.15;;;7.50;99.90;;;;;;5131444;27;20076;-67
2021/12/16 12:55:18;;;;;;;24.45;14.88;;;7.60;99.90;;;;;;5131226;27;20383;-67
2021/12/16 12:57:47;;;;;;;26.92;15.35;;;7.60;99.90;;;;;;5132008;27;20015;-68
2021/12/16 13:00:38;;;;;;;26.42;15.35;;;7.70;99.90;;;;;;5131092;27;20027;-68
2021/12/16 13:03:10;;;;;;;25.67;15.30;;;7.60;99.90;;;;;;5114458;27;20019;-68
2021/12/16 13:05:37;;;;;;;27.45;16.30;;;7.70;99.90;;;;;;5123003;27;20027;-67
2021/12/16 13:08:10;;;;;;;26.27;15.85;;;7.70;99.90;;;;;;5131261;27;20409;-68
2021/12/16 13:10:40;;;;;;;31.58;16.48;;;7.70;99.90;;;;;;5130254;27;20395;-67
2021/12/16 13:15:51;;;;;;;28.48;15.68;;;7.70;99.90;;;;;;5147086;27;20103;-68
2021/12/16 13:30:39;;;;;;;25.38;14.88;;;7.40;99.90;;;;;;5127608;27;20351;-67
2021/12/16 13:32:45;;;;;;;22.85;14.45;;;7.40;99.90;;;;;;5120818;27;20043;-67
2021/12/16 13:37:53;;;;;;;28.40;14.13;;;7.40;99.90;;;;;;5134704;27;20073;-68
2021/12/16 13:40:22;;;;;;;22.17;13.95;;;7.40;99.90;;;;;;5132273;27;20036;-68
2021/12/16 13:43:00;;;;;;;25.20;14.85;;;7.30;99.90;;;;;;5126467;28;20027;-68
2021/12/16 13:45:36;;;;;;;24.65;14.27;;;7.40;99.90;;;;;;5131606;28;20053;-67
2021/12/16 14:01:10;;;;;;;25.27;14.23;;;7.20;99.90;;;;;;5130370;28;20037;-68
2021/12/16 14:05:34;;;;;;;23.50;13.88;;;7.10;99.90;;;;;;5132058;28;20027;-68
2021/12/16 14:08:07;;;;;;;23.23;13.57;;;7.00;99.90;;;;;;5132117;28;20132;-68
2021/12/16 14:10:43;;;;;;;26.77;14.82;;;6.90;99.90;;;;;;5130947;28;20085;-68
2021/12/16 14:16:31;;;;;;;24.60;13.65;;;6.90;99.90;;;;;;5134121;27;20037;-68
2021/12/16 14:31:07;;;;;;;22.17;13.80;;;6.80;99.90;;;;;;5114287;27;20038;-68
2021/12/16 14:45:24;;;;;;;26.52;14.68;;;6.60;99.90;;;;;;5131762;27;20051;-68
2021/12/16 14:48:09;;;;;;;26.13;14.75;;;6.60;99.90;;;;;;5123431;27;20039;-68
2021/12/16 14:50:52;;;;;;;24.33;13.98;;;6.60;99.90;;;;;;5134271;27;20034;-68
2021/12/16 14:53:26;;;;;;;23.88;14.07;;;6.50;99.90;;;;;;5134516;27;20059;-67
2021/12/16 14:56:03;;;;;;;29.33;14.35;;;6.50;99.90;;;;;;5134468;27;20447;-68
2021/12/16 14:58:29;;;;;;;24.05;15.35;;;6.50;99.90;;;;;;5133971;27;20036;-68
2021/12/16 15:01:01;;;;;;;20.98;13.25;;;6.40;99.90;;;;;;5134459;27;20033;-68
2021/12/16 15:03:37;;;;;;;24.10;15.07;;;6.30;99.90;;;;;;5133311;27;20498;-68
2021/12/16 15:06:13;;;;;;;25.05;14.75;;;6.30;99.90;;;;;;5134703;27;20076;-68
2021/12/16 15:08:52;;;;;;;23.58;13.52;;;6.20;99.90;;;;;;5134180;27;20027;-68
2021/12/16 15:11:47;;;;;;;23.13;13.88;;;6.20;99.90;;;;;;5134240;27;20031;-68
2021/12/16 15:44:59;;;;;;;25.55;15.27;;;4.80;99.90;;;;;;5133705;27;20057;-68
2021/12/16 15:47:26;;;;;;;30.30;16.45;;;4.80;99.90;;;;;;5133832;27;20053;-68
2021/12/16 15:49:52;;;;;;;30.50;14.73;;;4.80;99.90;;;;;;5134016;27;20062;-68
2021/12/16 15:52:18;;;;;;;28.92;16.08;;;4.80;99.90;;;;;;5133667;27;20129;-68
2021/12/16 15:54:49;;;;;;;25.60;15.23;;;4.70;99.90;;;;;;5132657;27;20508;-76
2021/12/16 15:57:17;;;;;;;26.95;15.65;;;4.70;99.90;;;;;;5133238;27;20030;-70
2021/12/16 15:59:47;;;;;;;28.20;16.45;;;4.60;99.90;;;;;;5132861;27;20478;-70
2021/12/16 16:02:16;;;;;;;29.70;16.60;;;4.50;99.90;;;;;;5133413;27;20102;-72
2021/12/16 16:04:43;;;;;;;28.08;15.63;;;4.50;99.90;;;;;;5132537;27;20030;-72
2021/12/16 16:07:11;;;;;;;26.33;14.48;;;4.40;99.90;;;;;;5133117;27;20489;-72
2021/12/16 16:09:44;;;;;;;30.73;16.73;;;4.40;99.90;;;;;;5132354;27;20027;-73
2021/12/16 16:12:16;;;;;;;27.73;15.32;;;4.30;99.90;;;;;;5132607;27;20555;-72
2021/12/16 16:14:46;;;;;;;30.08;16.42;;;4.30;99.90;;;;;;5133159;27;20408;-72
2021/12/16 16:17:18;;;;;;;35.17;18.45;;;4.30;99.90;;;;;;5127804;27;20084;-72
2021/12/16 16:19:46;;;;;;;31.85;17.40;;;4.20;99.90;;;;;;5132473;27;20033;-72
2021/12/16 16:22:12;;;;;;;31.88;17.08;;;4.20;99.90;;;;;;5132034;27;20482;-72
2021/12/16 16:24:47;;;;;;;30.90;17.40;;;4.20;99.90;;;;;;5107269;27;20034;-72
2021/12/16 16:27:29;;;;;;;28.42;16.65;;;4.10;99.90;;;;;;5133179;27;20027;-72
2021/12/16 16:29:59;;;;;;;25.90;15.43;;;4.10;99.90;;;;;;5131904;27;20051;-72
2021/12/16 16:32:29;;;;;;;28.08;16.35;;;4.10;99.90;;;;;;5125054;27;20084;-72
2021/12/16 16:34:55;;;;;;;;;;;4.20;99.90;;;;;;5133470;27;20407;-72
2021/12/16 16:37:39;;;;;;;29.10;14.35;;;4.20;99.90;;;;;;5133343;27;19907;-72
2021/12/16 16:40:09;;;;;;;32.13;15.60;;;4.20;99.90;;;;;;5133296;27;20497;-72
2021/12/16 16:42:39;;;;;;;26.42;14.60;;;4.20;99.90;;;;;;5132342;27;20353;-72
2021/12/16 16:45:10;;;;;;;31.27;15.50;;;4.30;99.90;;;;;;5133029;27;20075;-72
2021/12/16 16:47:46;;;;;;;29.90;14.13;;;4.30;99.90;;;;;;5131883;27;20453;-72
2021/12/16 16:50:13;;;;;;;25.70;15.23;;;4.40;99.90;;;;;;5133072;27;20059;-71
2021/12/16 16:52:45;;;;;;;23.13;13.90;;;4.50;99.90;;;;;;5132579;27;20076;-72